x

West Santa Barbara 38 Nm West Of Santa Barbara, Ca (46054) Wave Buoy

1:50 - Mon 16th Jan 2017 All times are PST. -8 hours from GMT.

  • Sig Wave height 5.6ft
  • Swell Direction
  • Peak Period 17s
  • Average Period 8s
  • Wind
    11mph, 13mph gusts
  • Sea Temp 57°f
  • Ar Temp 55°f
  • Sea Pressure 1018mb
  • West Santa Barbara  38 Nm West Of Santa Barbara, Ca
  • West Santa Barbara  38 Nm West Of Santa Barbara, Ca

More Historic Weather Station data

Upgrade to MSW Pro to gain access to the past 30 days of data for over 8000 Wavebouys and Weather Stations around the globe.

Join Pro

Comparision Forecast

View Surf forecast
   
Seg 01/16 1:50 5.5ft 17s 8s 11 13 mph 1018mb 57f 55f
12:50 5ft 19s 8s 11 13 mph 1018mb 57f 55f
Dom 01/15 11:50 6ft 19s 8s 9 11 mph 1018.6mb 57f 56f
10:50 6.5ft 19s 8s 11 13 mph 1018.7mb 57f 56f
9:50 6ft 19s 7s 11 13 mph 1018.5mb 57f 56f
8:50 6ft 19s 7s 11 13 mph 1018.2mb 57f 56f
7:50 6ft 19s 6s 13 16 mph 1018.1mb 57f 56f
6:50 6ft 19s 6s 18 20 mph 1018mb 57f 55f
5:50 6.5ft 19s 7s 18 20 mph 1017.5mb 57f 55f
4:50 6.5ft 19s 6s 18 22 mph 1016.9mb 57f 55f
3:50 6.5ft 19s 6s 18 22 mph 1016.6mb 57f 55f
2:50 6.5ft 8s 6s 20 25 mph 1016.5mb 57f 54f
1:50 7ft 19s 6s 20 25 mph 1016.4mb 57f 54f
12:50 6ft 8s 6s 25 27 mph 1017mb 57f 54f
11:50 6ft 8s 6s 20 25 mph 1018mb 57f 55f
10:50 6.5ft 21s 7s 16 20 mph 1018.6mb 57f 55f
9:50 6.5ft 21s 6s 16 18 mph 1018.2mb 57f 54f
8:50 6.5ft 8s 6s 20 25 mph 1017.4mb 57f 54f
7:50 7ft 8s 6s 25 27 mph 1016.7mb 57f 54f
6:50 7ft 8s 6s 25 29 mph 1016.5mb 57f 54f
5:50 7ft 8s 6s 25 31 mph 1016.5mb 57f 55f
4:50 7ft 8s 6s 27 29 mph 1016.5mb 57f 55f
3:50 7.5ft 8s 6s 25 29 mph 1016.3mb 57f 55f
2:50 7.5ft 7s 6s 25 29 mph 1016.3mb 57f 56f
1:50 7ft 7s 6s 22 29 mph 1016.2mb 57f 56f
12:50 7ft 7s 6s 25 29 mph 1016.3mb 57f 55f
Sáb 01/14 11:50 7.5ft 7s 6s 27 31 mph 1016.6mb 57f 55f
10:50 7ft 7s 6s 25 29 mph 1016.9mb 57f 56f
9:50 7.5ft 7s 6s 25 31 mph 1016.9mb 57f 56f
8:50 7ft 8s 6s 25 29 mph 1017.1mb 57f 56f
7:50 7ft 15s 6s 27 31 mph 1017.4mb 57f 56f
6:50 6.5ft 15s 6s 25 29 mph 1017.5mb 57f 56f
5:50 6.5ft 8s 6s 27 31 mph 1016.9mb 57f 56f
4:50 7ft 15s 6s 22 27 mph 1017.1mb 57f 56f
3:50 6.5ft 15s 6s 27 31 mph 1017mb 57f 56f
2:50 6.5ft 8s 6s 25 29 mph 1016.5mb 57f 57f
1:50 6.5ft 15s 6s 25 29 mph 1016.5mb 57f 58f
12:50 7ft 8s 6s 25 31 mph 1016.9mb 57f 57f
11:50 6.5ft 15s 6s 25 29 mph 1017.6mb 57f 57f
10:50 6.5ft 9s 6s 25 29 mph 1018.3mb 57f 57f
9:50 6ft 9s 6s 18 20 mph 1018.9mb 57f 57f
8:50 6ft 11s 7s 16 20 mph 1018.6mb 57f 57f
7:50 6ft 11s 7s 13 16 mph 1018.4mb 57f 58f
6:50 6.5ft 9s 7s 11 16 mph 1018.2mb 57f 58f
5:50 6ft 9s 7s 11 16 mph 1018.3mb 57f 58f
4:50 7ft 8s 6s 11 16 mph 1018mb 57f 58f
3:50 7ft 11s 7s 9 13 mph 1018.3mb 57f 58f
2:50 7ft 12s 6s 13 16 mph 1018.6mb 57f 56f
1:50 7ft 11s 7s 20 25 mph 1018.7mb 57f 56f
12:50 6.5ft 11s 6s 25 31 mph 1018.9mb 57f 55f
Sex 01/13 11:50 6ft 10s 7s 7 9 mph 1019.3mb 57f 58f
10:50 6ft 12s 7s 13 16 mph 1019.1mb 57f 56f
9:50 7.5ft 10s 7s 16 20 mph 1018.5mb 57f 56f
8:50 7ft 10s 7s 20 25 mph 1017.9mb 57f 56f
7:50 8ft 11s 7s 20 22 mph 1017.7mb 57f 57f
6:50 8ft 10s 7s 22 25 mph 1017.6mb 57f 57f
5:50 8ft 11s 7s 20 25 mph 1017.4mb 57f 57f
4:50 7ft 10s 7s 13 18 mph 1017.2mb 57f 57f
3:50 7ft 11s 7s 20 25 mph 1016.9mb 57f 56f
2:50 6.5ft 11s 6s 27 31 mph 1016.7mb 57f 55f
1:50 6.5ft 11s 7s 22 25 mph 1016.5mb 57f 55f
12:50 7ft 11s 7s 9 11 mph 1016.6mb 57f 56f
11:50 7.5ft 11s 8s 11
mph
1017.3mb 57f 55f
10:50 7.5ft 11s 7s 13 16 mph 1018.1mb 57f 54f
9:50 7.5ft 11s 7s 13 16 mph 1018mb 57f 52f
8:50 7.5ft 8s 7s 16 18 mph 1017.4mb 57f 51f
7:50 7ft 12s 7s 20 22 mph 1017mb 57f 52f
6:50 8ft 12s 8s 18 22 mph 1016.7mb 57f 51f
5:50 7.5ft 11s 7s 18 22 mph 1016.6mb 57f 52f
4:50 7.5ft 12s 7s 18 22 mph 1016.4mb 57f 53f
3:50 7ft 13s 7s 18 20 mph 1016.5mb 57f 53f
2:50 7ft 13s 7s 13 16 mph 1016.5mb 57f 53f
1:50 7ft 13s 7s 16 20 mph 1016.3mb 57f 53f
12:50 8ft 13s 7s 20 25 mph 1015.9mb 57f 54f
Qui 01/12 11:50 7.5ft 13s 7s 18 22 mph 1016mb 57f 54f
10:50 8.5ft 13s 8s 18 22 mph 1016mb 57f 54f
9:50 8ft 13s 8s 18 22 mph 1015.9mb 57f 54f
8:50 8ft 11s 7s 18 20 mph 1015.7mb 57f 54f
7:50 9ft 13s 8s 18 20 mph 1015.4mb 57f 54f
6:50 8.5ft 14s 8s 18 22 mph 1014.9mb 57f 54f
5:50 9ft 14s 7s 18 22 mph 1014.5mb 57f 54f
4:50 9ft 12s 8s 18 22 mph 1014.1mb 57f 54f
3:50 8.5ft 13s 8s 20 22 mph 1014.1mb 57f 55f
2:50 10ft 13s 8s 20 22 mph 1013.4mb 57f 55f
1:50 8ft 13s 8s 20 25 mph 1013.1mb 57f 55f
12:50 8ft 12s 9s 18 22 mph 1013mb 57f 55f
11:50 8ft 13s 9s 7 11 mph 1013.7mb 57f 55f
10:50 8ft 14s 9s 4 9 mph 1014.4mb 57f 55f